createdAt,value
2018-12-20T00:00:44.358Z,24.32
2018-12-20T00:01:48.129Z,34.60
2018-12-20T00:02:51.982Z,27.07
2018-12-20T00:03:55.825Z,24.72
2018-12-20T00:04:59.652Z,30.80
2018-12-20T00:06:03.687Z,26.52
2018-12-20T00:07:07.595Z,26.23
2018-12-20T00:08:11.445Z,28.42
2018-12-20T00:09:15.352Z,25.75
2018-12-20T00:10:19.221Z,24.07
2018-12-20T00:11:23.250Z,32.50
2018-12-20T00:12:27.186Z,24.45
2018-12-20T00:13:31.068Z,26.52
2018-12-20T00:14:34.961Z,28.60
2018-12-20T00:15:39.028Z,27.45
2018-12-20T00:16:42.892Z,26.48
2018-12-20T00:17:50.244Z,44.73
2018-12-20T00:18:54.199Z,29.90
2018-12-20T00:19:58.067Z,25.35
2018-12-20T00:21:02.010Z,25.90
2018-12-20T00:22:06.504Z,26.15
2018-12-20T00:23:10.408Z,28.65
2018-12-20T00:24:14.463Z,25.02
2018-12-20T00:25:18.886Z,25.65
2018-12-20T00:26:22.774Z,26.82
2018-12-20T00:27:26.551Z,31.35
2018-12-20T00:28:30.488Z,24.90
2018-12-20T00:29:34.282Z,28.27
2018-12-20T00:30:38.113Z,26.73
2018-12-20T00:31:42.041Z,26.42
2018-12-20T00:32:45.902Z,26.05
2018-12-20T00:33:50.152Z,25.05
2018-12-20T00:34:53.919Z,25.48
2018-12-20T00:35:57.818Z,26.42
2018-12-20T00:37:01.762Z,27.48
2018-12-20T00:38:05.666Z,27.40
2018-12-20T00:39:09.502Z,27.32
2018-12-20T00:40:13.255Z,31.62
2018-12-20T00:41:17.043Z,28.73
2018-12-20T00:42:20.896Z,30.75
2018-12-20T00:43:24.773Z,26.12
2018-12-20T00:44:28.521Z,26.97
2018-12-20T00:45:32.225Z,27.85
2018-12-20T00:46:36.066Z,28.42
2018-12-20T00:47:39.888Z,28.77
2018-12-20T00:48:43.720Z,30.55
2018-12-20T00:49:48.284Z,28.42
2018-12-20T00:50:52.261Z,26.90
2018-12-20T00:51:56.177Z,31.40
2018-12-20T00:52:59.958Z,27.20
2018-12-20T00:54:03.754Z,32.83
2018-12-20T00:55:07.876Z,29.07
2018-12-20T00:56:11.653Z,27.77
2018-12-20T00:57:15.431Z,28.17
2018-12-20T00:58:19.202Z,28.87
2018-12-20T00:59:23.045Z,36.58
2018-12-20T01:00:27.026Z,31.68
2018-12-20T01:01:30.950Z,29.20
2018-12-20T01:02:34.822Z,43.42
2018-12-20T01:03:38.653Z,30.75
2018-12-20T01:04:43.189Z,32.23
2018-12-20T01:05:47.110Z,29.23
2018-12-20T01:06:51.017Z,29.77
2018-12-20T01:07:54.840Z,28.83
2018-12-20T01:08:58.577Z,30.00
2018-12-20T01:10:02.628Z,30.17
2018-12-20T01:11:06.973Z,28.25
2018-12-20T01:12:10.827Z,28.32
2018-12-20T01:13:14.738Z,28.38
2018-12-20T01:14:18.776Z,30.05
2018-12-20T01:15:22.620Z,30.35
2018-12-20T01:16:26.484Z,28.25
2018-12-20T01:17:35.718Z,28.55
2018-12-20T01:18:39.620Z,27.80
2018-12-20T01:19:43.520Z,31.70
2018-12-20T01:20:47.401Z,30.90
2018-12-20T01:21:51.313Z,28.70
2018-12-20T01:22:55.181Z,28.23
2018-12-20T01:23:59.161Z,30.25
2018-12-20T01:25:03.160Z,28.98
2018-12-20T01:26:07.166Z,31.37
2018-12-20T01:27:11.019Z,29.52
2018-12-20T01:28:14.808Z,31.05
2018-12-20T01:29:19.015Z,29.90
2018-12-20T01:30:22.943Z,29.42
2018-12-20T01:31:27.097Z,31.20
2018-12-20T01:32:31.238Z,31.85
2018-12-20T01:33:35.225Z,32.65
2018-12-20T01:34:39.178Z,31.25
2018-12-20T01:35:43.025Z,31.05
2018-12-20T01:36:47.860Z,29.77
2018-12-20T01:38:54.353Z,30.82
2018-12-20T01:39:58.347Z,32.10
2018-12-20T01:41:02.303Z,29.95
2018-12-20T01:42:06.165Z,29.82
2018-12-20T01:43:10.059Z,29.57
2018-12-20T01:44:14.027Z,30.88
2018-12-20T01:45:18.063Z,29.60
2018-12-20T01:46:22.126Z,29.45
2018-12-20T01:47:26.493Z,29.70
2018-12-20T01:48:30.472Z,30.27
2018-12-20T01:49:34.502Z,31.50
2018-12-20T01:50:38.503Z,31.42
2018-12-20T01:51:42.407Z,30.32
2018-12-20T01:52:46.808Z,30.90
2018-12-20T01:53:50.834Z,32.00
2018-12-20T01:54:54.759Z,30.12
2018-12-20T01:55:58.845Z,30.75
2018-12-20T01:57:02.793Z,34.03
2018-12-20T01:58:06.653Z,29.45
2018-12-20T01:59:10.576Z,29.87
2018-12-20T02:00:14.343Z,31.82
2018-12-20T02:01:18.390Z,29.87
2018-12-20T02:02:22.391Z,32.60
2018-12-20T02:03:26.152Z,30.92
2018-12-20T02:04:30.408Z,31.85
2018-12-20T02:05:34.155Z,30.62
2018-12-20T02:06:38.087Z,31.33
2018-12-20T02:07:41.897Z,30.68
2018-12-20T02:08:45.737Z,30.30
2018-12-20T02:09:49.570Z,29.35
2018-12-20T02:10:53.468Z,30.57
2018-12-20T02:11:57.540Z,30.97
2018-12-20T02:13:01.702Z,29.82
2018-12-20T02:14:05.863Z,29.57
2018-12-20T02:15:09.748Z,30.60
2018-12-20T02:16:13.574Z,29.25
2018-12-20T02:17:17.643Z,29.25
2018-12-20T02:18:21.667Z,28.12
2018-12-20T02:19:25.620Z,29.07
2018-12-20T02:20:29.544Z,28.55
2018-12-20T02:21:33.372Z,28.10
2018-12-20T02:22:38.166Z,29.48
2018-12-20T02:23:42.985Z,30.50
2018-12-20T02:24:47.014Z,29.37
2018-12-20T02:25:50.828Z,29.90
2018-12-20T02:26:54.696Z,29.92
2018-12-20T02:27:58.842Z,30.08
2018-12-20T02:29:02.776Z,30.50
2018-12-20T02:30:08.035Z,29.85
2018-12-20T02:31:12.273Z,30.95
2018-12-20T02:32:16.042Z,31.68
2018-12-20T02:33:20.041Z,30.50
2018-12-20T02:34:24.161Z,30.90
2018-12-20T02:35:27.968Z,32.03
2018-12-20T02:36:31.858Z,33.13
2018-12-20T02:37:36.114Z,31.82
2018-12-20T02:38:40.054Z,29.48
2018-12-20T02:39:43.975Z,29.92
2018-12-20T02:40:48.537Z,29.27
2018-12-20T02:41:52.353Z,31.05
2018-12-20T02:42:56.454Z,29.07
2018-12-20T02:44:00.284Z,28.95
2018-12-20T02:45:10.754Z,29.20
2018-12-20T02:46:11.139Z,30.25
2018-12-20T02:47:15.132Z,31.50
2018-12-20T02:48:19.080Z,28.65
2018-12-20T02:49:23.036Z,30.23
2018-12-20T02:50:26.883Z,31.48
2018-12-20T02:51:30.859Z,29.77
2018-12-20T02:52:34.837Z,31.93
2018-12-20T02:53:38.859Z,29.30
2018-12-20T02:54:42.712Z,29.65
2018-12-20T02:55:46.469Z,29.32
2018-12-20T02:56:50.494Z,29.48
2018-12-20T02:57:54.616Z,29.80
2018-12-20T02:58:58.661Z,30.35
2018-12-20T03:00:02.577Z,29.90
2018-12-20T03:01:06.526Z,30.35
2018-12-20T03:02:10.875Z,28.70
2018-12-20T03:03:14.806Z,29.75
2018-12-20T03:04:18.717Z,29.95
2018-12-20T03:05:22.704Z,29.98
2018-12-20T03:06:26.570Z,30.30
2018-12-20T03:07:30.374Z,29.57
2018-12-20T03:08:34.222Z,29.12
2018-12-20T03:09:38.066Z,30.20
2018-12-20T03:10:42.110Z,29.40
2018-12-20T03:11:46.182Z,29.57
2018-12-20T03:12:50.285Z,31.02
2018-12-20T03:13:54.189Z,30.90
2018-12-20T03:14:58.233Z,30.65
2018-12-20T03:16:02.082Z,30.57
2018-12-20T03:17:06.154Z,29.48
2018-12-20T03:18:10.135Z,34.53
2018-12-20T03:19:14.136Z,33.63
2018-12-20T03:20:18.167Z,31.10
2018-12-20T03:21:22.045Z,32.75
2018-12-20T03:22:25.892Z,30.65
2018-12-20T03:23:29.697Z,31.02
2018-12-20T03:24:33.900Z,33.40
2018-12-20T03:25:37.827Z,40.75
2018-12-20T03:26:42.020Z,33.67
2018-12-20T03:27:46.189Z,36.60
2018-12-20T03:28:50.187Z,34.43
2018-12-20T03:29:54.054Z,30.75
2018-12-20T03:30:57.958Z,33.02
2018-12-20T03:32:01.945Z,34.25
2018-12-20T03:33:06.343Z,31.75
2018-12-20T03:34:10.531Z,31.73
2018-12-20T03:35:14.547Z,30.75
2018-12-20T03:36:18.364Z,31.07
2018-12-20T03:37:22.172Z,33.90
2018-12-20T03:38:26.112Z,31.37
2018-12-20T03:39:30.075Z,30.45
2018-12-20T03:40:34.569Z,29.65
2018-12-20T03:41:38.360Z,30.80
2018-12-20T03:42:42.279Z,31.20
2018-12-20T03:43:46.372Z,33.55
2018-12-20T03:44:50.633Z,34.43
2018-12-20T03:45:54.819Z,32.38
2018-12-20T03:46:59.407Z,32.75
2018-12-20T03:48:03.260Z,31.45
2018-12-20T03:49:07.135Z,33.70
2018-12-20T03:50:11.011Z,32.85
2018-12-20T03:51:14.799Z,32.10
2018-12-20T03:52:18.774Z,34.25
2018-12-20T03:53:23.197Z,33.08
2018-12-20T03:54:27.192Z,31.25
2018-12-20T03:55:31.194Z,31.82
2018-12-20T03:56:35.139Z,31.20
2018-12-20T03:57:38.994Z,32.17
2018-12-20T03:58:42.978Z,33.15
2018-12-20T03:59:46.975Z,31.95
2018-12-20T04:00:51.099Z,30.10
2018-12-20T04:01:55.032Z,29.92
2018-12-20T04:02:58.956Z,33.40
2018-12-20T04:04:02.915Z,32.75
2018-12-20T04:05:07.015Z,31.90
2018-12-20T04:06:10.997Z,30.95
2018-12-20T04:07:14.948Z,31.97
2018-12-20T04:08:18.926Z,33.40
2018-12-20T04:09:22.757Z,31.35
2018-12-20T04:10:26.598Z,32.88
2018-12-20T04:11:30.729Z,34.30
2018-12-20T04:12:34.756Z,32.15
2018-12-20T04:13:38.531Z,31.52
2018-12-20T04:14:42.572Z,31.00
2018-12-20T04:15:46.535Z,31.62
2018-12-20T04:16:50.848Z,34.13
2018-12-20T04:17:54.741Z,33.45
2018-12-20T04:18:58.750Z,36.85
2018-12-20T04:20:02.819Z,33.88
2018-12-20T04:21:06.823Z,31.48
2018-12-20T04:22:10.683Z,31.68
2018-12-20T04:23:14.449Z,34.13
2018-12-20T04:24:18.337Z,35.40
2018-12-20T04:25:22.224Z,28.80
2018-12-20T04:26:26.037Z,35.13
2018-12-20T04:27:29.931Z,32.20
2018-12-20T04:28:33.753Z,33.02
2018-12-20T04:29:37.687Z,30.30
2018-12-20T04:30:41.723Z,32.55
2018-12-20T04:31:45.775Z,32.60
2018-12-20T04:32:49.900Z,34.08
2018-12-20T04:33:53.989Z,33.00
2018-12-20T04:34:58.038Z,32.15
2018-12-20T04:36:01.963Z,30.90
2018-12-20T04:37:06.006Z,29.05
2018-12-20T04:38:09.967Z,32.83
2018-12-20T04:39:13.743Z,36.35
2018-12-20T04:40:17.858Z,31.87
2018-12-20T04:41:21.947Z,32.48
2018-12-20T04:42:25.909Z,32.33
2018-12-20T04:43:29.787Z,30.55
2018-12-20T04:44:33.654Z,30.97
2018-12-20T04:45:46.416Z,31.35
2018-12-20T04:46:43.452Z,30.20
2018-12-20T04:47:47.473Z,34.13
2018-12-20T04:48:51.751Z,30.72
2018-12-20T04:49:55.800Z,32.48
2018-12-20T04:51:00.005Z,33.50
2018-12-20T04:52:04.110Z,32.17
2018-12-20T04:53:08.179Z,29.12
2018-12-20T04:54:12.156Z,29.70
2018-12-20T04:55:16.055Z,30.70
2018-12-20T04:56:19.932Z,29.50
2018-12-20T04:57:23.829Z,31.07
2018-12-20T04:58:27.971Z,29.87
2018-12-20T04:59:31.959Z,30.97
2018-12-20T05:00:35.761Z,30.20
2018-12-20T05:01:39.854Z,32.17
2018-12-20T05:02:43.942Z,31.23
2018-12-20T05:03:47.825Z,31.40
2018-12-20T05:04:51.599Z,32.38
2018-12-20T05:05:55.693Z,32.60
2018-12-20T05:06:59.728Z,31.52
2018-12-20T05:08:03.725Z,31.90
2018-12-20T05:09:07.618Z,31.10
2018-12-20T05:10:11.415Z,29.50
2018-12-20T05:11:15.573Z,30.25
2018-12-20T05:12:19.437Z,30.80
2018-12-20T05:13:23.353Z,30.72
2018-12-20T05:14:27.295Z,31.37
2018-12-20T05:15:31.724Z,30.90
2018-12-20T05:16:35.604Z,29.82
2018-12-20T05:17:40.486Z,30.37
2018-12-20T05:18:44.591Z,28.92
2018-12-20T05:19:48.865Z,30.35
2018-12-20T05:20:52.984Z,31.17
2018-12-20T05:21:57.076Z,31.85
2018-12-20T05:23:00.888Z,30.68
2018-12-20T05:24:04.660Z,30.43
2018-12-20T05:25:08.574Z,29.98
2018-12-20T05:26:12.425Z,30.97
2018-12-20T05:27:16.842Z,31.33
2018-12-20T05:28:21.117Z,31.12
2018-12-20T05:29:25.010Z,29.95
2018-12-20T05:30:28.779Z,31.33
2018-12-20T05:31:32.565Z,31.35
2018-12-20T05:32:36.381Z,31.25
2018-12-20T05:33:40.195Z,31.20
2018-12-20T05:34:44.274Z,30.72
2018-12-20T05:35:48.197Z,31.57
2018-12-20T05:36:51.929Z,30.48
2018-12-20T05:37:55.713Z,30.00
2018-12-20T05:38:59.583Z,30.17
2018-12-20T05:40:03.597Z,30.57
2018-12-20T05:41:07.358Z,32.30
2018-12-20T05:42:11.335Z,29.85
2018-12-20T05:43:15.386Z,30.00
2018-12-20T05:44:19.499Z,30.40
2018-12-20T05:45:23.420Z,30.62
2018-12-20T05:46:27.245Z,31.23
2018-12-20T05:47:31.165Z,30.02
2018-12-20T05:48:35.338Z,31.95
2018-12-20T05:49:39.313Z,31.42
2018-12-20T05:50:43.175Z,31.70
2018-12-20T05:51:46.950Z,30.32
2018-12-20T05:52:50.750Z,30.70
2018-12-20T05:53:54.709Z,30.82
2018-12-20T05:54:58.513Z,31.25
2018-12-20T05:56:02.325Z,30.35
2018-12-20T05:57:06.257Z,29.55
2018-12-20T05:58:10.263Z,32.25
2018-12-20T05:59:14.095Z,28.32
2018-12-20T06:00:18.159Z,31.35
2018-12-20T06:01:22.031Z,30.88
2018-12-20T06:02:25.839Z,31.48
2018-12-20T06:03:29.741Z,31.42
2018-12-20T06:04:33.624Z,32.33
2018-12-20T06:05:37.626Z,31.45
2018-12-20T06:06:41.630Z,32.23
2018-12-20T06:07:45.506Z,31.65
2018-12-20T06:08:49.385Z,31.65
2018-12-20T06:09:53.169Z,31.52
2018-12-20T06:10:57.311Z,31.52
2018-12-20T06:12:01.431Z,32.10
2018-12-20T06:13:05.393Z,33.10
2018-12-20T06:14:09.280Z,30.05
2018-12-20T06:15:13.443Z,32.00
2018-12-20T06:16:17.223Z,31.85
2018-12-20T06:17:20.935Z,31.90
2018-12-20T06:18:24.763Z,30.40
2018-12-20T06:19:28.678Z,32.20
2018-12-20T06:20:32.574Z,31.10
2018-12-20T06:21:36.444Z,30.68
2018-12-20T06:22:40.208Z,32.17
2018-12-20T06:23:44.021Z,31.30
2018-12-20T06:24:47.820Z,32.38
2018-12-20T06:25:51.509Z,31.02
2018-12-20T06:26:55.229Z,31.37
2018-12-20T06:27:58.986Z,30.17
2018-12-20T06:29:02.769Z,31.75
2018-12-20T06:30:07.268Z,30.45
2018-12-20T06:31:11.138Z,30.45
2018-12-20T06:32:14.915Z,31.10
2018-12-20T06:33:18.763Z,31.52
2018-12-20T06:34:22.493Z,31.40
2018-12-20T06:35:26.294Z,30.55
2018-12-20T06:36:30.081Z,32.08
2018-12-20T06:37:33.905Z,32.53
2018-12-20T06:38:37.642Z,31.87
2018-12-20T06:39:41.463Z,31.37
2018-12-20T06:40:45.242Z,30.60
2018-12-20T06:41:49.001Z,30.97
2018-12-20T06:42:52.814Z,30.90
2018-12-20T06:43:56.582Z,31.75
2018-12-20T06:45:00.355Z,32.75
2018-12-20T06:46:04.218Z,31.87
2018-12-20T06:47:07.993Z,29.82
2018-12-20T06:48:11.692Z,29.95
2018-12-20T06:49:15.470Z,30.65
2018-12-20T06:50:19.213Z,29.18
2018-12-20T06:51:22.996Z,32.63
2018-12-20T06:52:26.876Z,31.60
2018-12-20T06:53:30.670Z,32.73
2018-12-20T06:54:34.469Z,29.95
2018-12-20T06:55:38.303Z,29.60
2018-12-20T06:56:42.177Z,32.03
2018-12-20T06:57:45.943Z,31.73
2018-12-20T06:58:49.819Z,29.85
2018-12-20T06:59:53.631Z,30.90
2018-12-20T07:00:58.430Z,30.80
2018-12-20T07:02:02.194Z,30.92
2018-12-20T07:03:05.963Z,29.70
2018-12-20T07:04:09.695Z,32.17
2018-12-20T07:05:13.476Z,30.88
2018-12-20T07:06:17.269Z,31.37
2018-12-20T07:07:21.207Z,32.93
2018-12-20T07:08:24.994Z,32.55
2018-12-20T07:09:28.781Z,31.57
2018-12-20T07:10:32.488Z,32.48
2018-12-20T07:11:36.243Z,30.70
2018-12-20T07:12:39.974Z,31.87
2018-12-20T07:13:43.736Z,32.38
2018-12-20T07:14:47.510Z,30.75
2018-12-20T07:15:51.241Z,31.02
2018-12-20T07:16:55.035Z,28.80
2018-12-20T07:17:58.910Z,30.12
2018-12-20T07:19:02.729Z,30.15
2018-12-20T07:20:06.510Z,30.27
2018-12-20T07:21:10.255Z,32.23
2018-12-20T07:22:14.187Z,31.33
2018-12-20T07:23:17.965Z,32.08
2018-12-20T07:24:21.760Z,31.85
2018-12-20T07:25:25.503Z,32.55
2018-12-20T07:26:29.314Z,31.37
2018-12-20T07:27:33.037Z,31.10
2018-12-20T07:28:36.831Z,31.95
2018-12-20T07:29:40.724Z,30.75
2018-12-20T07:30:44.442Z,31.30
2018-12-20T07:31:48.189Z,31.52
2018-12-20T07:32:52.225Z,31.97
2018-12-20T07:33:56.034Z,32.98
2018-12-20T07:34:59.865Z,32.83
2018-12-20T07:36:03.628Z,30.92
2018-12-20T07:37:07.368Z,31.00
2018-12-20T07:38:11.077Z,31.25
2018-12-20T07:39:14.853Z,31.20
2018-12-20T07:40:18.628Z,32.13
2018-12-20T07:41:22.429Z,30.52
2018-12-20T07:42:26.154Z,31.05
2018-12-20T07:43:29.943Z,32.73
2018-12-20T07:44:33.759Z,31.45
2018-12-20T07:45:37.527Z,31.12
2018-12-20T07:46:41.335Z,31.05
2018-12-20T07:47:45.108Z,29.60
2018-12-20T07:48:49.108Z,31.77
2018-12-20T07:49:52.928Z,29.75
2018-12-20T07:50:56.642Z,31.93
2018-12-20T07:52:00.412Z,30.92
2018-12-20T07:53:04.233Z,31.62
2018-12-20T07:54:08.121Z,31.12
2018-12-20T07:55:12.021Z,30.88
2018-12-20T07:56:15.777Z,32.17
2018-12-20T07:57:19.558Z,31.05
2018-12-20T07:58:23.252Z,30.40
2018-12-20T07:59:27.076Z,30.97
2018-12-20T08:00:34.454Z,30.43
2018-12-20T08:01:38.246Z,29.82
2018-12-20T08:02:41.925Z,31.60
2018-12-20T08:03:45.630Z,31.12
2018-12-20T08:04:49.502Z,31.30
2018-12-20T08:05:53.257Z,30.80
2018-12-20T08:06:56.957Z,31.75
2018-12-20T08:08:00.669Z,30.08
2018-12-20T08:09:07.217Z,29.48
2018-12-20T08:10:11.202Z,31.50
2018-12-20T08:11:15.257Z,29.23
2018-12-20T08:12:19.069Z,31.27
2018-12-20T08:13:22.878Z,30.08
2018-12-20T08:14:26.647Z,31.37
2018-12-20T08:15:30.392Z,30.70
2018-12-20T08:16:34.229Z,30.62
2018-12-20T08:17:38.065Z,30.25
2018-12-20T08:18:41.817Z,30.35
2018-12-20T08:19:45.591Z,31.25
2018-12-20T08:20:49.409Z,32.23
2018-12-20T08:21:53.188Z,29.70
2018-12-20T08:22:56.973Z,32.48
2018-12-20T08:24:01.453Z,29.75
2018-12-20T08:25:05.573Z,30.92
2018-12-20T08:26:09.473Z,31.17
2018-12-20T08:27:13.213Z,30.82
2018-12-20T08:28:16.957Z,31.12
2018-12-20T08:29:20.759Z,31.55
2018-12-20T08:30:24.494Z,31.20
2018-12-20T08:31:28.232Z,32.45
2018-12-20T08:32:32.003Z,31.52
2018-12-20T08:33:35.793Z,30.85
2018-12-20T08:34:39.520Z,30.30
2018-12-20T08:35:44.089Z,30.45
2018-12-20T08:36:47.897Z,30.65
2018-12-20T08:37:52.180Z,31.75
2018-12-20T08:38:56.001Z,31.10
2018-12-20T08:39:59.689Z,31.30
2018-12-20T08:41:03.409Z,31.33
2018-12-20T08:42:07.209Z,29.95
2018-12-20T08:43:10.916Z,30.43
2018-12-20T08:44:14.664Z,32.28
2018-12-20T08:45:18.397Z,31.55
2018-12-20T08:46:22.181Z,31.80
2018-12-20T08:47:25.936Z,31.80
2018-12-20T08:48:29.620Z,37.42
2018-12-20T08:49:33.354Z,34.88
2018-12-20T08:50:37.094Z,31.50
2018-12-20T08:51:48.858Z,29.85
2018-12-20T08:52:46.770Z,32.98
2018-12-20T08:53:50.607Z,33.50
2018-12-20T08:54:54.352Z,30.15
2018-12-20T08:55:58.149Z,33.30
2018-12-20T08:57:02.011Z,31.52
2018-12-20T08:58:05.842Z,34.43
2018-12-20T08:59:09.664Z,34.10
2018-12-20T09:00:13.611Z,31.35
2018-12-20T09:01:17.304Z,31.05
2018-12-20T09:02:21.215Z,30.75
2018-12-20T09:03:24.906Z,31.55
2018-12-20T09:04:28.619Z,30.57
2018-12-20T09:05:32.415Z,31.77
2018-12-20T09:06:36.093Z,33.08
2018-12-20T09:07:39.874Z,31.02
2018-12-20T09:08:43.639Z,33.38
2018-12-20T09:09:47.372Z,47.93
2018-12-20T09:10:51.231Z,52.90
2018-12-20T09:11:54.971Z,31.77
2018-12-20T09:12:58.789Z,35.45
2018-12-20T09:14:02.513Z,36.60
2018-12-20T09:15:06.297Z,31.02
2018-12-20T09:16:10.117Z,31.35
2018-12-20T09:17:13.907Z,29.80
2018-12-20T09:18:17.725Z,33.10
2018-12-20T09:19:21.548Z,32.90
2018-12-20T09:20:32.525Z,33.02
2018-12-20T09:21:31.081Z,36.33
2018-12-20T09:22:34.841Z,36.65
2018-12-20T09:23:38.650Z,31.90
2018-12-20T09:24:42.476Z,34.92
2018-12-20T09:25:46.254Z,31.15
2018-12-20T09:26:50.042Z,40.75
2018-12-20T09:27:53.901Z,37.58
2018-12-20T09:28:57.644Z,48.10
2018-12-20T09:30:01.465Z,34.15
2018-12-20T09:31:06.484Z,29.82
2018-12-20T09:32:10.178Z,30.45
2018-12-20T09:33:14.037Z,29.87
2018-12-20T09:34:17.778Z,32.13
2018-12-20T09:35:21.590Z,29.55
2018-12-20T09:36:25.387Z,30.23
2018-12-20T09:37:29.107Z,36.83
2018-12-20T09:38:32.846Z,39.45
2018-12-20T09:39:36.597Z,35.95
2018-12-20T09:40:40.398Z,32.17
2018-12-20T09:41:44.206Z,29.48
2018-12-20T09:42:47.913Z,29.45
2018-12-20T09:43:51.708Z,29.25
2018-12-20T09:44:55.489Z,30.90
2018-12-20T09:45:59.273Z,28.77
2018-12-20T09:47:11.825Z,32.25
2018-12-20T09:48:14.482Z,36.15
2018-12-20T09:49:18.194Z,30.15
2018-12-20T09:50:21.903Z,29.87
2018-12-20T09:51:25.683Z,33.55
2018-12-20T09:52:29.509Z,29.85
2018-12-20T09:53:33.347Z,31.35
2018-12-20T09:54:37.806Z,30.92
2018-12-20T09:55:41.544Z,31.52
2018-12-20T09:56:45.354Z,30.08
2018-12-20T09:57:49.215Z,32.88
2018-12-20T09:58:53.014Z,29.77
2018-12-20T09:59:56.903Z,29.95
2018-12-20T10:01:00.800Z,30.17
2018-12-20T10:02:04.596Z,30.40
2018-12-20T10:03:08.334Z,31.23
2018-12-20T10:04:12.133Z,29.18
2018-12-20T10:05:15.965Z,28.57
2018-12-20T10:06:19.736Z,28.98
2018-12-20T10:07:23.652Z,30.20
2018-12-20T10:08:27.525Z,28.60
2018-12-20T10:09:31.659Z,27.30
2018-12-20T10:10:35.577Z,29.80
2018-12-20T10:11:39.511Z,29.20
2018-12-20T10:12:43.393Z,30.50
2018-12-20T10:13:47.257Z,26.90
2018-12-20T10:14:52.187Z,27.90
2018-12-20T10:15:56.076Z,28.77
2018-12-20T10:16:59.868Z,28.32
2018-12-20T10:18:03.683Z,28.20
2018-12-20T10:19:07.565Z,28.00
2018-12-20T10:20:14.524Z,28.30
2018-12-20T10:21:18.393Z,29.55
2018-12-20T10:22:22.131Z,27.60
2018-12-20T10:23:25.919Z,27.15
2018-12-20T10:24:29.811Z,28.50
2018-12-20T10:25:33.898Z,27.73
2018-12-20T10:26:37.745Z,27.82
2018-12-20T10:27:41.518Z,28.98
2018-12-20T10:28:45.326Z,36.28
2018-12-20T10:29:49.207Z,34.50
2018-12-20T10:30:53.245Z,27.40
2018-12-20T10:31:57.136Z,28.57
2018-12-20T10:33:01.000Z,28.20
2018-12-20T10:34:04.815Z,30.12
2018-12-20T10:35:08.750Z,27.52
2018-12-20T10:36:12.497Z,26.23
2018-12-20T10:37:16.293Z,31.57
2018-12-20T10:38:20.088Z,29.60
2018-12-20T10:39:24.098Z,38.63
2018-12-20T10:40:27.945Z,28.73
2018-12-20T10:41:31.775Z,28.75
2018-12-20T10:42:35.565Z,28.00
2018-12-20T10:43:39.406Z,27.67
2018-12-20T10:44:43.190Z,28.07
2018-12-20T10:45:46.969Z,26.77
2018-12-20T10:46:50.896Z,26.10
2018-12-20T10:47:54.724Z,28.50
2018-12-20T10:48:58.615Z,26.62
2018-12-20T10:50:02.445Z,33.95
2018-12-20T10:51:06.445Z,29.82
2018-12-20T10:52:10.258Z,28.38
2018-12-20T10:53:14.220Z,27.93
2018-12-20T10:54:18.119Z,27.82
2018-12-20T10:55:21.976Z,27.32
2018-12-20T10:56:25.894Z,27.65
2018-12-20T10:57:29.833Z,28.30
2018-12-20T10:58:33.707Z,27.10
2018-12-20T10:59:37.495Z,27.45
2018-12-20T11:00:46.755Z,27.55
2018-12-20T11:01:54.923Z,26.82
2018-12-20T11:03:04.350Z,29.77
2018-12-20T11:04:13.658Z,29.15
2018-12-20T11:05:25.223Z,27.87
2018-12-20T11:06:34.639Z,26.95
2018-12-20T11:07:44.034Z,26.57
2018-12-20T11:08:53.283Z,27.87
2018-12-20T11:10:02.683Z,26.85
2018-12-20T11:11:06.861Z,28.12
2018-12-20T11:12:12.519Z,28.65
2018-12-20T11:13:21.743Z,26.40
2018-12-20T11:14:25.638Z,29.37
2018-12-20T11:15:29.638Z,27.87
2018-12-20T11:16:33.543Z,26.93
2018-12-20T11:17:37.775Z,26.40
2018-12-20T11:18:42.850Z,26.65
2018-12-20T11:19:47.524Z,27.13
2018-12-20T11:20:51.385Z,27.95
2018-12-20T11:21:55.202Z,26.27
2018-12-20T11:22:58.972Z,26.85
2018-12-20T11:24:02.778Z,27.27
2018-12-20T11:25:06.701Z,27.55
2018-12-20T11:26:10.604Z,27.45
2018-12-20T11:27:14.561Z,26.40
2018-12-20T11:28:18.419Z,26.17
2018-12-20T11:29:22.762Z,25.95
2018-12-20T11:30:26.542Z,26.33
2018-12-20T11:31:30.364Z,26.95
2018-12-20T11:32:34.208Z,25.45
2018-12-20T11:33:38.078Z,26.40
2018-12-20T11:34:41.876Z,27.10
2018-12-20T11:35:45.714Z,26.00
2018-12-20T11:36:49.451Z,25.70
2018-12-20T11:37:53.402Z,26.77
2018-12-20T11:38:57.581Z,25.97
2018-12-20T11:40:01.352Z,26.12
2018-12-20T11:41:05.175Z,27.15
2018-12-20T11:42:09.104Z,26.57
2018-12-20T11:43:12.898Z,25.65
2018-12-20T11:44:16.694Z,26.65
2018-12-20T11:45:20.466Z,25.27
2018-12-20T11:46:24.289Z,24.47
2018-12-20T11:47:29.288Z,27.35
2018-12-20T11:48:33.033Z,25.90
2018-12-20T11:49:36.794Z,25.02
2018-12-20T11:50:40.554Z,26.60
2018-12-20T11:51:44.265Z,26.02
2018-12-20T11:52:48.048Z,25.48
2018-12-20T11:53:52.386Z,25.57
2018-12-20T11:54:56.273Z,27.00
2018-12-20T11:56:00.010Z,24.92
2018-12-20T11:57:03.700Z,25.65
2018-12-20T11:58:07.448Z,27.17
2018-12-20T11:59:11.281Z,27.52
2018-12-20T12:00:15.102Z,24.92
2018-12-20T12:01:18.849Z,25.35
2018-12-20T12:02:24.572Z,25.23
2018-12-20T12:03:28.285Z,25.65
2018-12-20T12:04:32.069Z,25.48
2018-12-20T12:05:35.815Z,25.68
2018-12-20T12:06:39.591Z,24.47
2018-12-20T12:07:43.363Z,25.17
2018-12-20T12:08:47.250Z,25.20
2018-12-20T12:09:51.092Z,25.23
2018-12-20T12:10:54.842Z,25.52
2018-12-20T12:11:58.617Z,23.90
2018-12-20T12:13:02.488Z,26.25
2018-12-20T12:14:06.245Z,24.57
2018-12-20T12:15:10.060Z,25.92
2018-12-20T12:16:13.842Z,25.08
2018-12-20T12:17:17.631Z,23.50
2018-12-20T12:18:21.378Z,24.90
2018-12-20T12:19:26.312Z,25.05
2018-12-20T12:20:30.115Z,22.77
2018-12-20T12:21:33.901Z,23.92
2018-12-20T12:22:38.195Z,25.25
2018-12-20T12:23:41.942Z,23.75
2018-12-20T12:24:45.726Z,24.52
2018-12-20T12:25:49.643Z,25.52
2018-12-20T12:26:53.387Z,25.20
2018-12-20T12:27:57.149Z,23.87
2018-12-20T12:29:01.188Z,25.62
2018-12-20T12:30:05.858Z,44.03
2018-12-20T12:31:09.653Z,29.70
2018-12-20T12:32:13.458Z,26.02
2018-12-20T12:33:17.234Z,26.55
2018-12-20T12:34:21.026Z,26.33
2018-12-20T12:35:24.777Z,25.65
2018-12-20T12:36:28.558Z,25.23
2018-12-20T12:37:32.305Z,23.05
2018-12-20T12:38:36.123Z,23.60
2018-12-20T12:39:40.064Z,24.32
2018-12-20T12:40:43.987Z,22.60
2018-12-20T12:41:47.818Z,23.05
2018-12-20T12:42:51.569Z,23.73
2018-12-20T12:43:55.310Z,25.32
2018-12-20T12:44:59.205Z,24.67
2018-12-20T12:46:03.077Z,23.70
2018-12-20T12:47:08.375Z,23.62
2018-12-20T12:48:12.082Z,24.15
2018-12-20T12:49:15.822Z,24.85
2018-12-20T12:50:19.637Z,24.27
2018-12-20T12:51:23.451Z,24.60
2018-12-20T12:52:27.249Z,25.08
2018-12-20T12:53:31.081Z,23.98
2018-12-20T12:54:34.778Z,23.65
2018-12-20T12:55:38.631Z,23.90
2018-12-20T12:56:42.499Z,23.45
2018-12-20T12:57:46.595Z,23.80
2018-12-20T12:58:50.382Z,23.00
2018-12-20T12:59:54.161Z,23.90
2018-12-20T13:00:57.907Z,24.37
2018-12-20T13:02:01.642Z,23.80
2018-12-20T13:03:05.408Z,22.90
2018-12-20T13:04:09.237Z,24.35
2018-12-20T13:05:13.159Z,23.90
2018-12-20T13:06:16.873Z,23.52
2018-12-20T13:07:20.627Z,25.08
2018-12-20T13:08:24.396Z,24.80
2018-12-20T13:09:28.098Z,23.35
2018-12-20T13:10:31.827Z,22.98
2018-12-20T13:11:35.587Z,23.85
2018-12-20T13:12:39.339Z,23.55
2018-12-20T13:13:43.076Z,24.10
2018-12-20T13:14:46.846Z,23.92
2018-12-20T13:15:50.642Z,24.30
2018-12-20T13:16:54.402Z,24.75
2018-12-20T13:17:58.227Z,31.60
2018-12-20T13:19:02.059Z,24.52
2018-12-20T13:20:07.118Z,24.52
2018-12-20T13:21:10.950Z,24.00
2018-12-20T13:22:14.735Z,24.32
2018-12-20T13:23:18.542Z,24.02
2018-12-20T13:24:22.513Z,23.18
2018-12-20T13:25:26.205Z,23.20
2018-12-20T13:26:29.968Z,22.80
2018-12-20T13:27:33.739Z,23.47
2018-12-20T13:28:37.557Z,22.87
2018-12-20T13:29:42.318Z,23.77
2018-12-20T13:30:46.047Z,24.10
2018-12-20T13:31:49.875Z,23.75
2018-12-20T13:32:53.595Z,23.50
2018-12-20T13:33:57.333Z,22.20
2018-12-20T13:35:01.466Z,23.77
2018-12-20T13:36:05.293Z,22.93
2018-12-20T13:37:15.787Z,22.77
2018-12-20T13:38:14.825Z,23.30
2018-12-20T13:39:18.554Z,22.50
2018-12-20T13:40:22.508Z,21.70
2018-12-20T13:41:26.340Z,23.05
2018-12-20T13:42:30.258Z,23.55
2018-12-20T13:43:33.932Z,24.45
2018-12-20T13:44:37.856Z,23.02
2018-12-20T13:45:41.701Z,22.50